createdAt,value
2023-01-02T00:01:54.212Z,10.30
2023-01-02T00:04:39.802Z,10.30
2023-01-02T00:07:25.560Z,10.30
2023-01-02T00:10:11.548Z,10.30
2023-01-02T00:12:57.184Z,10.20
2023-01-02T00:15:42.989Z,10.30
2023-01-02T00:18:28.427Z,10.30
2023-01-02T00:21:13.989Z,10.30
2023-01-02T00:23:59.603Z,10.30
2023-01-02T00:26:45.278Z,10.30
2023-01-02T00:29:31.073Z,10.30
2023-01-02T00:32:16.683Z,10.30
2023-01-02T00:35:02.292Z,10.30
2023-01-02T00:37:47.979Z,10.30
2023-01-02T00:40:33.954Z,10.30
2023-01-02T00:43:20.088Z,10.30
2023-01-02T00:46:11.252Z,10.30
2023-01-02T00:48:57.244Z,10.30
2023-01-02T00:51:42.892Z,10.30
2023-01-02T00:54:28.680Z,10.30
2023-01-02T00:57:14.304Z,10.30
2023-01-02T00:59:59.914Z,10.30
2023-01-02T01:02:45.482Z,10.30
2023-01-02T01:05:31.020Z,10.30
2023-01-02T01:08:16.805Z,10.30
2023-01-02T01:11:07.247Z,10.30
2023-01-02T01:13:53.025Z,10.40
2023-01-02T01:16:38.663Z,10.30
2023-01-02T01:19:24.127Z,10.40
2023-01-02T01:22:09.799Z,10.40
2023-01-02T01:24:55.514Z,10.40
2023-01-02T01:27:41.071Z,10.40
2023-01-02T01:30:28.352Z,10.40
2023-01-02T01:33:14.026Z,10.40
2023-01-02T01:36:05.198Z,10.40
2023-01-02T01:38:51.137Z,10.30
2023-01-02T01:41:37.144Z,10.40
2023-01-02T01:44:47.083Z,10.40
2023-01-02T01:47:53.385Z,10.30
2023-01-02T01:50:39.451Z,10.30
2023-01-02T01:53:25.782Z,10.30
2023-01-02T01:56:13.611Z,10.30
2023-01-02T01:58:59.274Z,10.30
2023-01-02T02:01:46.491Z,10.30
2023-01-02T02:04:32.917Z,10.30
2023-01-02T02:07:18.822Z,10.30
2023-01-02T02:10:09.047Z,10.30
2023-01-02T02:12:54.616Z,10.30
2023-01-02T02:15:52.802Z,10.30
2023-01-02T02:19:16.682Z,10.30
2023-01-02T02:22:20.932Z,10.30
2023-01-02T02:25:59.930Z,10.30
2023-01-02T02:28:45.615Z,10.30
2023-01-02T02:31:52.910Z,10.30
2023-01-02T02:34:47.690Z,10.30
2023-01-02T02:37:50.543Z,10.20
2023-01-02T02:40:48.041Z,10.30
2023-01-02T02:43:42.421Z,10.30
2023-01-02T02:46:48.985Z,10.30
2023-01-02T02:50:10.450Z,10.30
2023-01-02T02:53:09.198Z,10.30
2023-01-02T02:55:57.561Z,10.20
2023-01-02T02:58:44.586Z,10.30
2023-01-02T03:01:31.360Z,10.20
2023-01-02T03:04:19.327Z,10.20
2023-01-02T03:07:21.779Z,10.20
2023-01-02T03:10:50.140Z,10.20
2023-01-02T03:14:07.643Z,10.20
2023-01-02T03:17:03.878Z,10.20
2023-01-02T03:19:55.091Z,10.20
2023-01-02T03:22:46.787Z,10.20
2023-01-02T03:25:34.596Z,10.20
2023-01-02T03:28:26.407Z,10.20
2023-01-02T03:31:17.296Z,10.30
2023-01-02T03:34:13.641Z,10.20
2023-01-02T03:37:11.650Z,10.20
2023-01-02T03:40:07.490Z,10.20
2023-01-02T03:43:20.929Z,10.20
2023-01-02T03:46:13.966Z,10.20
2023-01-02T03:49:07.640Z,10.20
2023-01-02T03:51:54.237Z,10.20
2023-01-02T03:54:40.220Z,10.20
2023-01-02T03:57:42.730Z,10.20
2023-01-02T04:00:37.211Z,10.10
2023-01-02T04:03:56.509Z,10.10
2023-01-02T04:06:49.027Z,10.10
2023-01-02T04:09:37.447Z,10.10
2023-01-02T04:12:26.798Z,10.10
2023-01-02T04:15:14.026Z,10.10
2023-01-02T04:18:10.553Z,10.10
2023-01-02T04:21:00.504Z,10.00
2023-01-02T04:23:50.684Z,10.00
2023-01-02T04:26:45.425Z,10.00
2023-01-02T04:29:31.699Z,10.00
2023-01-02T04:32:29.596Z,10.00
2023-01-02T04:35:19.156Z,10.00
2023-01-02T04:38:12.725Z,9.90
2023-01-02T04:40:58.213Z,9.90
2023-01-02T04:43:43.877Z,9.90
2023-01-02T04:46:29.783Z,10.00
2023-01-02T04:49:15.249Z,10.00
2023-01-02T04:52:01.047Z,10.00
2023-01-02T04:54:46.475Z,10.00
2023-01-02T04:57:32.140Z,10.00
2023-01-02T05:00:17.925Z,10.10
2023-01-02T05:03:04.524Z,10.00
2023-01-02T05:05:50.162Z,10.00
2023-01-02T05:08:36.773Z,10.10
2023-01-02T05:11:22.354Z,10.10
2023-01-02T05:14:08.374Z,10.10
2023-01-02T05:16:53.776Z,10.10
2023-01-02T05:19:39.539Z,10.10
2023-01-02T05:22:43.865Z,10.10
2023-01-02T05:25:34.897Z,10.10
2023-01-02T05:28:20.449Z,10.20
2023-01-02T05:31:06.234Z,10.10
2023-01-02T05:33:56.514Z,10.20
2023-01-02T05:36:42.296Z,10.20
2023-01-02T05:39:28.042Z,10.10
2023-01-02T05:42:13.674Z,10.20
2023-01-02T05:44:59.747Z,10.20
2023-01-02T05:47:45.497Z,10.10
2023-01-02T05:50:31.045Z,10.10
2023-01-02T05:53:17.806Z,10.10
2023-01-02T05:56:09.612Z,10.10
2023-01-02T05:58:56.125Z,10.00
2023-01-02T06:01:42.413Z,10.00
2023-01-02T06:04:29.195Z,10.00
2023-01-02T06:07:14.939Z,10.00
2023-01-02T06:10:00.928Z,10.00
2023-01-02T06:12:46.671Z,9.90
2023-01-02T06:15:34.005Z,10.00
2023-01-02T06:18:19.455Z,10.00
2023-01-02T06:21:11.588Z,10.10
2023-01-02T06:23:58.101Z,10.10
2023-01-02T06:26:44.606Z,10.10
2023-01-02T06:29:30.732Z,10.10
2023-01-02T06:32:16.404Z,10.10
2023-01-02T06:35:01.832Z,10.10
2023-01-02T06:37:48.429Z,10.20
2023-01-02T06:40:34.131Z,10.20
2023-01-02T06:43:20.764Z,10.20
2023-01-02T06:46:06.453Z,10.20
2023-01-02T06:48:52.155Z,10.20
2023-01-02T06:51:38.668Z,10.20
2023-01-02T06:54:28.376Z,10.10
2023-01-02T06:57:14.002Z,10.10
2023-01-02T07:00:00.314Z,10.10
2023-01-02T07:02:45.868Z,10.00
2023-01-02T07:05:31.923Z,10.00
2023-01-02T07:08:17.455Z,10.00
2023-01-02T07:11:08.707Z,10.10
2023-01-02T07:13:55.132Z,10.10
2023-01-02T07:16:40.610Z,10.20
2023-01-02T07:19:26.115Z,10.20
2023-01-02T07:22:11.912Z,10.10
2023-01-02T07:24:57.563Z,10.20
2023-01-02T07:27:43.423Z,10.20
2023-01-02T07:30:28.907Z,10.20
2023-01-02T07:33:14.898Z,10.20
2023-01-02T07:36:02.517Z,10.30
2023-01-02T07:38:52.553Z,10.30
2023-01-02T07:41:38.150Z,10.30
2023-01-02T07:44:32.687Z,10.30
2023-01-02T07:47:18.637Z,10.20
2023-01-02T07:50:04.640Z,10.30
2023-01-02T07:52:49.902Z,10.30
2023-01-02T07:55:35.763Z,10.30
2023-01-02T07:58:21.452Z,10.30
2023-01-02T08:01:09.296Z,10.40
2023-01-02T08:03:55.042Z,10.40
2023-01-02T08:06:41.415Z,10.30
2023-01-02T08:09:27.148Z,10.30
2023-01-02T08:12:12.821Z,10.30
2023-01-02T08:14:58.391Z,10.30
2023-01-02T08:17:44.184Z,10.30
2023-01-02T08:20:29.522Z,10.40
2023-01-02T08:23:15.282Z,10.40
2023-01-02T08:26:02.982Z,10.40
2023-01-02T08:28:48.563Z,10.50
2023-01-02T08:31:37.646Z,10.40
2023-01-02T08:34:27.509Z,10.50
2023-01-02T08:37:14.272Z,10.40
2023-01-02T08:39:59.967Z,10.50
2023-01-02T08:42:46.467Z,10.40
2023-01-02T08:45:32.171Z,10.40
2023-01-02T08:48:20.391Z,10.40
2023-01-02T08:51:07.164Z,10.50
2023-01-02T08:53:53.117Z,10.50
2023-01-02T08:56:38.871Z,10.50
2023-01-02T08:59:25.737Z,10.50
2023-01-02T09:02:16.670Z,10.50
2023-01-02T09:05:02.613Z,10.60
2023-01-02T09:07:48.317Z,10.60
2023-01-02T09:10:34.095Z,10.70
2023-01-02T09:13:19.595Z,10.70
2023-01-02T09:16:05.758Z,10.80
2023-01-02T09:18:52.102Z,10.70
2023-01-02T09:21:37.939Z,10.70
2023-01-02T09:24:26.038Z,10.80
2023-01-02T09:27:11.717Z,10.70
2023-01-02T09:29:57.413Z,10.80
2023-01-02T09:32:43.014Z,10.80
2023-01-02T09:35:28.643Z,10.80
2023-01-02T09:38:14.674Z,10.80
2023-01-02T09:41:03.035Z,10.70
2023-01-02T09:43:52.645Z,10.80
2023-01-02T09:46:45.001Z,10.90
2023-01-02T09:49:35.049Z,10.90
2023-01-02T09:52:25.685Z,11.00
2023-01-02T09:55:17.192Z,11.00
2023-01-02T09:58:18.467Z,11.00
2023-01-02T10:01:06.266Z,11.00
2023-01-02T10:04:29.836Z,11.10
2023-01-02T10:07:26.453Z,11.10
2023-01-02T10:10:17.948Z,11.10
2023-01-02T10:13:18.613Z,11.10
2023-01-02T10:16:06.574Z,11.20
2023-01-02T10:18:54.212Z,11.20
2023-01-02T10:21:41.681Z,11.10
2023-01-02T10:24:39.289Z,11.10
2023-01-02T10:27:32.878Z,11.10
2023-01-02T10:30:19.937Z,11.20
2023-01-02T10:33:31.155Z,11.20
2023-01-02T10:36:34.741Z,11.20
2023-01-02T10:39:27.760Z,11.20
2023-01-02T10:42:15.945Z,11.20
2023-01-02T10:45:01.581Z,11.20
2023-01-02T10:47:47.212Z,11.20
2023-01-02T10:50:40.692Z,11.20
2023-01-02T10:53:39.484Z,11.20
2023-01-02T10:56:24.869Z,11.30
2023-01-02T10:59:21.866Z,11.30
2023-01-02T11:02:27.338Z,11.20
2023-01-02T11:05:21.129Z,11.30
2023-01-02T11:08:14.660Z,11.30
2023-01-02T11:11:01.788Z,11.30
2023-01-02T11:13:54.081Z,11.30
2023-01-02T11:16:42.070Z,11.30
2023-01-02T11:19:29.955Z,11.30
2023-01-02T11:22:18.500Z,11.30
2023-01-02T11:25:11.458Z,11.30
2023-01-02T11:27:59.504Z,11.40
2023-01-02T11:30:46.395Z,11.40
2023-01-02T11:33:36.465Z,11.40
2023-01-02T11:36:22.725Z,11.40
2023-01-02T11:39:23.316Z,11.40
2023-01-02T11:42:27.299Z,11.40
2023-01-02T11:45:12.839Z,11.40
2023-01-02T11:48:02.162Z,11.40
2023-01-02T11:50:50.018Z,11.50
2023-01-02T11:53:41.341Z,11.50
2023-01-02T11:56:33.496Z,11.50
2023-01-02T11:59:23.793Z,11.60
2023-01-02T12:02:26.976Z,11.60
2023-01-02T12:05:33.163Z,11.60
2023-01-02T12:08:51.003Z,11.60
2023-01-02T12:11:49.669Z,11.60
2023-01-02T12:14:44.062Z,11.60
2023-01-02T12:17:51.509Z,11.60
2023-01-02T12:21:02.404Z,11.60
2023-01-02T12:23:48.169Z,11.60
2023-01-02T12:26:49.045Z,11.60
2023-01-02T12:29:47.974Z,11.60
2023-01-02T12:32:52.481Z,11.60
2023-01-02T12:35:52.845Z,11.50
2023-01-02T12:38:50.705Z,11.50
2023-01-02T12:42:03.044Z,11.50
2023-01-02T12:44:54.964Z,11.50
2023-01-02T12:48:12.679Z,11.50
2023-01-02T12:51:11.771Z,11.40
2023-01-02T12:54:31.906Z,11.40
2023-01-02T12:57:51.444Z,11.40
2023-01-02T13:00:51.390Z,11.30
2023-01-02T13:03:52.692Z,11.40
2023-01-02T13:06:59.906Z,11.30
2023-01-02T13:09:46.015Z,11.30
2023-01-02T13:12:34.884Z,11.30
2023-01-02T13:15:28.087Z,11.40
2023-01-02T13:18:27.767Z,11.30
2023-01-02T13:21:25.604Z,11.40
2023-01-02T13:24:23.961Z,11.40
2023-01-02T13:27:11.230Z,11.40
2023-01-02T13:29:56.938Z,11.40
2023-01-02T13:32:42.450Z,11.40
2023-01-02T13:35:33.427Z,11.40
2023-01-02T13:38:19.787Z,11.40
2023-01-02T13:41:05.647Z,11.40
2023-01-02T13:44:02.505Z,11.40
2023-01-02T13:47:04.293Z,11.40
2023-01-02T13:50:02.777Z,11.40
2023-01-02T13:53:26.671Z,11.40
2023-01-02T13:56:17.084Z,11.40
2023-01-02T13:59:41.800Z,11.40
2023-01-02T14:02:29.767Z,11.40
2023-01-02T14:05:52.919Z,11.50
2023-01-02T14:08:40.442Z,11.40
2023-01-02T14:11:31.866Z,11.40
2023-01-02T14:14:46.912Z,11.40
2023-01-02T14:17:51.553Z,11.40
2023-01-02T14:20:42.822Z,11.40
2023-01-02T14:23:32.780Z,11.40
2023-01-02T14:26:24.633Z,11.40
2023-01-02T14:29:17.060Z,11.40
2023-01-02T14:32:17.807Z,11.40
2023-01-02T14:35:08.186Z,11.30
2023-01-02T14:37:56.234Z,11.30
2023-01-02T14:40:43.687Z,11.30
2023-01-02T14:43:37.504Z,11.30
2023-01-02T14:46:26.461Z,11.30
2023-01-02T14:49:25.413Z,11.20
2023-01-02T14:52:18.825Z,11.20
2023-01-02T14:55:27.233Z,11.20
2023-01-02T14:58:46.682Z,11.20
2023-01-02T15:01:42.315Z,11.30
2023-01-02T15:04:52.672Z,11.30
2023-01-02T15:07:43.475Z,11.30
2023-01-02T15:10:29.079Z,11.30
2023-01-02T15:13:14.733Z,11.30
2023-01-02T15:16:00.858Z,11.30
2023-01-02T15:18:54.168Z,11.20
2023-01-02T15:21:40.275Z,11.20
2023-01-02T15:24:27.889Z,11.30
2023-01-02T15:27:23.863Z,11.30
2023-01-02T15:30:27.711Z,11.30
2023-01-02T15:33:30.878Z,11.30
2023-01-02T15:36:32.819Z,11.30
2023-01-02T15:39:22.396Z,11.30
2023-01-02T15:42:49.959Z,11.30
2023-01-02T15:45:42.439Z,11.30
2023-01-02T15:48:29.480Z,11.30
2023-01-02T15:51:40.620Z,11.30
2023-01-02T15:54:28.899Z,11.30
2023-01-02T15:57:16.214Z,11.30
2023-01-02T16:00:02.283Z,11.30
2023-01-02T16:02:52.901Z,11.30
2023-01-02T16:05:46.525Z,11.30
2023-01-02T16:08:37.784Z,11.30
2023-01-02T16:11:24.434Z,11.30
2023-01-02T16:14:20.655Z,11.30
2023-01-02T16:17:26.785Z,11.30
2023-01-02T16:20:13.017Z,11.30
2023-01-02T16:23:05.569Z,11.30
2023-01-02T16:25:51.232Z,11.30
2023-01-02T16:28:40.571Z,11.30
2023-01-02T16:31:26.586Z,11.20
2023-01-02T16:34:14.088Z,11.20
2023-01-02T16:37:16.411Z,11.20
2023-01-02T16:41:01.148Z,11.20
2023-01-02T16:43:34.429Z,11.20
2023-01-02T16:46:24.098Z,11.20
2023-01-02T16:49:14.258Z,11.20
2023-01-02T16:52:00.908Z,11.20
2023-01-02T16:54:50.780Z,11.20
2023-01-02T16:57:39.756Z,11.20
2023-01-02T17:00:25.732Z,11.20
2023-01-02T17:03:19.405Z,11.20
2023-01-02T17:06:12.407Z,11.20
2023-01-02T17:08:58.149Z,11.20
2023-01-02T17:12:00.054Z,11.20
2023-01-02T17:14:46.329Z,11.20
2023-01-02T17:17:35.949Z,11.20
2023-01-02T17:20:21.955Z,11.20
2023-01-02T17:23:07.542Z,11.10
2023-01-02T17:25:53.072Z,11.10
2023-01-02T17:28:38.771Z,11.00
2023-01-02T17:31:26.234Z,11.10
2023-01-02T17:34:12.722Z,11.10
2023-01-02T17:36:58.678Z,11.10
2023-01-02T17:39:46.144Z,11.10
2023-01-02T17:42:32.314Z,11.00
2023-01-02T17:45:18.153Z,11.00
2023-01-02T17:48:10.614Z,11.00
2023-01-02T17:50:57.159Z,11.00
2023-01-02T17:53:43.061Z,11.00
2023-01-02T17:56:28.965Z,11.00
2023-01-02T17:59:19.216Z,11.10
2023-01-02T18:02:05.649Z,11.10
2023-01-02T18:04:55.156Z,11.00
2023-01-02T18:07:42.718Z,11.00
2023-01-02T18:10:32.983Z,11.10
2023-01-02T18:13:19.153Z,11.00
2023-01-02T18:16:16.565Z,11.00
2023-01-02T18:19:04.182Z,11.10
2023-01-02T18:21:52.779Z,11.10
2023-01-02T18:24:38.662Z,11.10
2023-01-02T18:27:27.590Z,11.10
2023-01-02T18:30:18.836Z,11.10
2023-01-02T18:33:30.090Z,11.10
2023-01-02T18:36:22.835Z,11.10
2023-01-02T18:39:34.441Z,11.10
2023-01-02T18:43:16.558Z,11.10
2023-01-02T18:46:16.097Z,11.10
2023-01-02T18:49:24.087Z,11.10
2023-01-02T18:52:10.486Z,11.10
2023-01-02T18:55:00.723Z,11.10
2023-01-02T18:57:55.577Z,11.10
2023-01-02T19:00:41.744Z,11.10
2023-01-02T19:03:28.356Z,11.10
2023-01-02T19:11:21.319Z,11.10
2023-01-02T19:14:20.308Z,11.10
2023-01-02T19:17:19.863Z,11.10
2023-01-02T19:20:09.622Z,11.10
2023-01-02T19:22:59.780Z,11.10
2023-01-02T19:25:45.473Z,11.10
2023-01-02T19:28:32.244Z,11.10
2023-01-02T19:31:17.942Z,11.10
2023-01-02T19:34:16.346Z,11.10
2023-01-02T19:37:11.256Z,11.00
2023-01-02T19:40:14.641Z,11.00
2023-01-02T19:43:04.043Z,11.00
2023-01-02T19:45:49.710Z,11.00
2023-01-02T19:48:35.688Z,11.00
2023-01-02T19:51:22.863Z,11.00
2023-01-02T19:54:08.486Z,11.00
2023-01-02T19:56:54.079Z,11.00
2023-01-02T19:59:43.628Z,11.00
2023-01-02T20:02:29.597Z,11.00
2023-01-02T20:05:21.045Z,11.00
2023-01-02T20:08:07.943Z,11.00
2023-01-02T20:10:54.498Z,11.00
2023-01-02T20:13:40.181Z,10.90
2023-01-02T20:16:26.843Z,10.90
2023-01-02T20:19:13.725Z,11.00
2023-01-02T20:22:00.207Z,11.00
2023-01-02T20:24:46.630Z,10.90
2023-01-02T20:27:32.144Z,10.90
2023-01-02T20:30:23.970Z,10.90
2023-01-02T20:33:10.449Z,10.90
2023-01-02T20:35:56.285Z,10.90
2023-01-02T20:38:41.639Z,10.80
2023-01-02T20:41:27.183Z,10.80
2023-01-02T20:44:14.103Z,10.80
2023-01-02T20:47:01.719Z,10.90
2023-01-02T20:49:47.453Z,10.90
2023-01-02T20:52:33.036Z,10.90
2023-01-02T20:55:18.632Z,10.90
2023-01-02T20:58:04.689Z,10.90
2023-01-02T21:00:50.779Z,10.90
2023-01-02T21:03:36.555Z,10.90
2023-01-02T21:06:22.653Z,10.90
2023-01-02T21:09:08.130Z,10.90
2023-01-02T21:11:53.823Z,10.90
2023-01-02T21:14:39.563Z,10.90
2023-01-02T21:17:26.062Z,10.90
2023-01-02T21:20:11.984Z,10.90
2023-01-02T21:22:57.456Z,10.90
2023-01-02T21:25:43.505Z,10.90
2023-01-02T21:28:29.204Z,10.90
2023-01-02T21:31:15.468Z,10.90
2023-01-02T21:34:01.209Z,10.90
2023-01-02T21:36:46.831Z,10.90
2023-01-02T21:39:32.469Z,10.90
2023-01-02T21:42:18.983Z,10.90
2023-01-02T21:45:05.070Z,10.90
2023-01-02T21:47:50.994Z,10.90
2023-01-02T21:50:36.701Z,10.90
2023-01-02T21:53:22.489Z,10.90
2023-01-02T21:56:08.704Z,10.90
2023-01-02T21:58:54.999Z,10.90
2023-01-02T22:01:40.697Z,11.00
2023-01-02T22:04:26.147Z,10.90
2023-01-02T22:07:31.062Z,10.80
2023-01-02T22:10:17.807Z,10.80
2023-01-02T22:13:03.694Z,10.80
2023-01-02T22:15:49.241Z,10.90
2023-01-02T22:18:38.231Z,10.90
2023-01-02T22:21:24.459Z,10.90
2023-01-02T22:24:10.061Z,10.90
2023-01-02T22:27:02.412Z,10.90
2023-01-02T22:30:20.608Z,11.00
2023-01-02T22:32:56.352Z,10.90
2023-01-02T22:35:42.180Z,10.90
2023-01-02T22:38:27.952Z,10.90
2023-01-02T22:41:13.701Z,10.90
2023-01-02T22:44:02.143Z,10.90
2023-01-02T22:46:54.250Z,10.90
2023-01-02T22:49:40.837Z,10.90
2023-01-02T22:52:27.731Z,10.90
2023-01-02T22:55:21.491Z,11.00
2023-01-02T22:58:07.688Z,11.00
2023-01-02T23:01:23.658Z,10.90
2023-01-02T23:04:17.421Z,10.90
2023-01-02T23:07:23.290Z,10.90
2023-01-02T23:10:10.113Z,10.80
2023-01-02T23:12:55.916Z,10.80
2023-01-02T23:16:01.454Z,10.90
2023-01-02T23:19:05.919Z,10.90
2023-01-02T23:21:57.007Z,10.90
2023-01-02T23:24:42.678Z,10.90
2023-01-02T23:27:28.107Z,10.90
2023-01-02T23:30:14.312Z,10.90
2023-01-02T23:32:59.784Z,10.90
2023-01-02T23:35:45.374Z,10.90
2023-01-02T23:38:32.979Z,10.90
2023-01-02T23:41:19.148Z,10.80
2023-01-02T23:44:05.733Z,10.80
2023-01-02T23:46:51.700Z,10.80
2023-01-02T23:49:37.136Z,10.80
2023-01-02T23:52:22.735Z,10.80
2023-01-02T23:55:08.771Z,10.80
2023-01-02T23:57:54.214Z,10.80
